Time;durP1;ratioP1;P1;durP2;ratioP2;P2;SDS_P1;SDS_P2;PMS_P1;PMS_P2;Temp;Humidity;BMP_temperature;BMP_pressure;BME280_temperature;BME280_humidity;BME280_pressure;Samples;Min_cycle;Max_cycle;Signal;HPM_P1;HPM_P2
2022/01/15 00:00:34;;;;;;;18.33;11.10;;;4.80;99.90;;;;;;5030811;28;20193;-50
2022/01/15 00:03:03;;;;;;;22.80;13.57;;;4.80;99.90;;;;;;5038292;28;20738;-50
2022/01/15 00:05:32;;;;;;;21.80;13.50;;;4.80;99.90;;;;;;5033408;28;20188;-50
2022/01/15 00:08:03;;;;;;;13.82;9.30;;;4.80;99.90;;;;;;5048830;28;20310;-49
2022/01/15 00:10:31;;;;;;;13.50;9.68;;;4.80;99.90;;;;;;5049238;28;20553;-49
2022/01/15 00:13:01;;;;;;;13.77;9.45;;;4.80;99.90;;;;;;5032917;28;20217;-51
2022/01/15 00:15:33;;;;;;;14.95;9.98;;;4.80;99.90;;;;;;5034430;28;20307;-50
2022/01/15 00:18:05;;;;;;;14.32;8.93;;;4.80;99.90;;;;;;5045410;28;20224;-49
2022/01/15 00:20:33;;;;;;;16.65;10.68;;;4.80;99.90;;;;;;5041357;28;20303;-50
2022/01/15 00:23:03;;;;;;;14.05;10.23;;;4.80;99.90;;;;;;5048004;28;20792;-49
2022/01/15 00:25:33;;;;;;;12.40;10.40;;;4.80;99.90;;;;;;5048287;28;20275;-51
2022/01/15 00:28:03;;;;;;;20.60;14.32;;;4.80;99.90;;;;;;5033567;28;20623;-50
2022/01/15 00:30:31;;;;;;;17.65;10.30;;;4.80;99.90;;;;;;5038206;28;20246;-49
2022/01/15 00:32:59;;;;;;;15.63;10.00;;;4.80;99.90;;;;;;5046248;28;20307;-50
2022/01/15 00:35:27;;;;;;;13.07;9.48;;;4.80;99.90;;;;;;5040483;28;20220;-50
2022/01/15 00:37:56;;;;;;;12.82;8.50;;;4.80;99.90;;;;;;5040615;28;20235;-49
2022/01/15 00:40:25;;;;;;;16.10;12.20;;;4.80;99.90;;;;;;5036825;28;20200;-49
2022/01/15 00:42:53;;;;;;;14.18;9.93;;;4.80;99.90;;;;;;5049422;28;20209;-49
2022/01/15 00:45:25;;;;;;;22.75;13.77;;;4.80;99.90;;;;;;5049561;28;20539;-50
2022/01/15 00:47:54;;;;;;;13.85;9.13;;;4.80;99.90;;;;;;5036315;28;20707;-49
2022/01/15 00:50:22;;;;;;;17.25;9.82;;;4.80;99.90;;;;;;5030487;28;20197;-50
2022/01/15 00:52:50;;;;;;;14.35;9.65;;;4.80;99.90;;;;;;5033269;28;20219;-50
2022/01/15 00:55:20;;;;;;;10.77;9.35;;;4.80;99.90;;;;;;5049444;28;20318;-49
2022/01/15 00:57:49;;;;;;;12.95;8.55;;;4.80;99.90;;;;;;5031284;28;20252;-50
2022/01/15 01:00:22;;;;;;;11.23;8.10;;;4.80;99.90;;;;;;5030613;28;20221;-49
2022/01/15 01:02:51;;;;;;;12.85;9.45;;;4.80;99.90;;;;;;5046302;28;20247;-49
2022/01/15 01:05:21;;;;;;;15.32;11.20;;;4.80;99.90;;;;;;5034754;28;20292;-49
2022/01/15 01:07:49;;;;;;;11.05;8.00;;;4.80;99.90;;;;;;5035361;28;20300;-50
2022/01/15 01:21:37;;;;;;;12.57;8.30;;;4.80;99.90;;;;;;5066702;28;20261;-49
2022/01/15 01:24:04;;;;;;;9.30;7.40;;;4.80;99.90;;;;;;5065850;28;20265;-49
2022/01/15 01:26:40;;;;;;;15.88;9.90;;;4.80;99.90;;;;;;5050436;28;20315;-49
2022/01/15 01:29:18;;;;;;;11.50;8.65;;;4.80;99.90;;;;;;5065271;28;20235;-51
2022/01/15 01:31:57;;;;;;;13.25;6.90;;;4.80;99.90;;;;;;5051114;28;20196;-49
2022/01/15 01:34:26;;;;;;;14.48;10.55;;;4.80;99.90;;;;;;5063634;28;20250;-51
2022/01/15 01:37:01;;;;;;;13.90;8.65;;;4.80;99.90;;;;;;5066431;28;20714;-49
2022/01/15 01:39:37;;;;;;;14.40;9.05;;;4.80;99.90;;;;;;5038791;28;20280;-49
2022/01/15 01:42:13;;;;;;;12.93;8.77;;;4.80;99.90;;;;;;5066670;28;20226;-49
2022/01/15 01:44:59;;;;;;;15.80;9.73;;;4.80;99.90;;;;;;5057611;28;20219;-50
2022/01/15 01:47:39;;;;;;;16.60;11.32;;;4.80;99.90;;;;;;5052890;28;20200;-49
2022/01/15 01:50:10;;;;;;;14.07;9.18;;;4.80;99.90;;;;;;5066531;28;20202;-50
2022/01/15 01:52:39;;;;;;;14.63;10.68;;;4.80;99.90;;;;;;5065882;28;20227;-50
2022/01/15 01:55:09;;;;;;;16.17;11.07;;;4.80;99.90;;;;;;5062215;28;20241;-50
2022/01/15 01:57:37;;;;;;;17.13;11.10;;;4.80;99.90;;;;;;5063313;28;20302;-49
2022/01/15 02:00:10;;;;;;;17.27;10.63;;;4.80;99.90;;;;;;5065521;28;20211;-49
2022/01/15 02:02:47;;;;;;;15.55;9.95;;;4.80;99.90;;;;;;5061346;28;20235;-50
2022/01/15 02:05:16;;;;;;;16.00;11.30;;;4.80;99.90;;;;;;5065995;28;20223;-50
2022/01/15 02:07:46;;;;;;;20.05;12.05;;;4.80;99.90;;;;;;5065219;28;20479;-50
2022/01/15 02:10:16;;;;;;;14.30;10.85;;;4.80;99.90;;;;;;5061672;28;20196;-50
2022/01/15 02:12:47;;;;;;;17.15;10.55;;;4.80;99.90;;;;;;5065460;28;20215;-51
2022/01/15 02:15:19;;;;;;;17.98;10.15;;;4.80;99.90;;;;;;5065600;28;20264;-50
2022/01/15 02:17:48;;;;;;;16.60;11.50;;;4.70;99.90;;;;;;5063432;28;20269;-49
2022/01/15 02:25:59;;;;;;;14.68;9.00;;;4.70;99.90;;;;;;5054420;28;20588;-50
2022/01/15 02:28:29;;;;;;;18.50;11.85;;;4.80;99.90;;;;;;5063876;28;20227;-49
2022/01/15 02:31:00;;;;;;;20.58;12.57;;;4.80;99.90;;;;;;5065541;28;20191;-49
2022/01/15 02:33:29;;;;;;;15.55;11.10;;;4.80;99.90;;;;;;5065246;28;20223;-50
2022/01/15 02:35:59;;;;;;;16.33;10.95;;;4.80;99.90;;;;;;5047997;28;20269;-49
2022/01/15 02:38:27;;;;;;;19.75;12.25;;;4.80;99.90;;;;;;5065024;28;20219;-51
2022/01/15 02:40:55;;;;;;;18.00;11.15;;;4.80;99.90;;;;;;5064212;28;20721;-50
2022/01/15 02:43:29;;;;;;;20.65;13.77;;;4.70;99.90;;;;;;5064071;28;20257;-50
2022/01/15 02:46:00;;;;;;;18.15;12.15;;;4.80;99.90;;;;;;5064157;28;20183;-50
2022/01/15 02:48:29;;;;;;;17.35;11.13;;;4.70;99.90;;;;;;5054055;28;20737;-49
2022/01/15 02:50:59;;;;;;;26.90;14.18;;;4.70;99.90;;;;;;5064127;28;20191;-50
2022/01/15 02:53:27;;;;;;;14.90;9.65;;;4.80;99.90;;;;;;5064275;28;20737;-50
2022/01/15 02:55:56;;;;;;;22.85;12.85;;;4.80;99.90;;;;;;5053856;28;20200;-49
2022/01/15 02:58:25;;;;;;;23.52;11.55;;;4.70;99.90;;;;;;5064048;28;20277;-49
2022/01/15 03:00:53;;;;;;;16.17;11.13;;;4.80;99.90;;;;;;5063945;28;20279;-50
2022/01/15 03:03:22;;;;;;;17.50;10.10;;;4.70;99.90;;;;;;5059166;28;20615;-49
2022/01/15 03:05:53;;;;;;;20.70;13.02;;;4.80;99.90;;;;;;5064691;28;20542;-50
2022/01/15 03:08:22;;;;;;;17.08;9.98;;;4.80;99.90;;;;;;5064253;28;20224;-50
2022/01/15 03:10:50;;;;;;;17.60;9.82;;;4.70;99.90;;;;;;5046265;28;20212;-49
2022/01/15 03:13:18;;;;;;;18.83;11.15;;;4.70;99.90;;;;;;5064536;28;20635;-50
2022/01/15 03:15:46;;;;;;;14.80;10.38;;;4.70;99.90;;;;;;5064201;28;20722;-49
2022/01/15 03:18:16;;;;;;;16.55;9.70;;;4.70;99.90;;;;;;5060514;28;20654;-50
2022/01/15 03:20:44;;;;;;;17.95;11.60;;;4.80;99.90;;;;;;5064843;28;20184;-50
2022/01/15 03:23:12;;;;;;;15.82;10.30;;;4.70;99.90;;;;;;5064022;28;20226;-49
2022/01/15 03:25:42;;;;;;;16.63;9.15;;;4.80;99.90;;;;;;5054477;28;20216;-50
2022/01/15 03:28:10;;;;;;;15.88;10.38;;;4.70;99.90;;;;;;5059056;28;20249;-50
2022/01/15 03:30:38;;;;;;;16.33;10.07;;;4.80;99.90;;;;;;5046529;28;20199;-50
2022/01/15 03:33:08;;;;;;;15.02;10.00;;;4.70;99.90;;;;;;5059893;28;20622;-49
2022/01/15 03:35:37;;;;;;;15.70;9.95;;;4.70;99.90;;;;;;5063940;28;20338;-50
2022/01/15 03:38:05;;;;;;;16.65;8.93;;;4.80;99.90;;;;;;5066053;28;20269;-49
2022/01/15 03:40:35;;;;;;;17.85;11.07;;;4.70;99.90;;;;;;5067131;28;20762;-51
2022/01/15 03:43:05;;;;;;;14.98;9.00;;;4.70;99.90;;;;;;5065869;28;20261;-49
2022/01/15 03:45:33;;;;;;;16.27;8.90;;;4.70;99.90;;;;;;5067300;28;20198;-49
2022/01/15 03:48:03;;;;;;;14.13;8.88;;;4.70;99.90;;;;;;5062396;28;20334;-50
2022/01/15 03:50:31;;;;;;;16.33;9.20;;;4.70;99.90;;;;;;5068688;28;20286;-49
2022/01/15 03:52:59;;;;;;;13.93;8.80;;;4.70;99.90;;;;;;5071273;28;20215;-50
2022/01/15 03:55:27;;;;;;;15.20;9.75;;;4.70;99.90;;;;;;5064432;28;20615;-50
2022/01/15 03:57:55;;;;;;;12.00;9.32;;;4.70;99.90;;;;;;5067164;28;20698;-49
2022/01/15 04:00:26;;;;;;;15.18;9.70;;;4.70;99.90;;;;;;5067581;28;20196;-49
2022/01/15 04:02:55;;;;;;;15.10;9.23;;;4.70;99.90;;;;;;5060454;28;20220;-49
2022/01/15 04:05:24;;;;;;;15.88;9.20;;;4.70;99.90;;;;;;5067284;28;20608;-49
2022/01/15 04:07:53;;;;;;;17.75;9.00;;;4.70;99.90;;;;;;5067326;28;20216;-50
2022/01/15 04:10:21;;;;;;;14.63;8.75;;;4.70;99.90;;;;;;5066068;28;20278;-50
2022/01/15 04:12:49;;;;;;;17.13;9.10;;;4.70;99.90;;;;;;5067367;28;20216;-50
2022/01/15 04:15:18;;;;;;;12.70;9.43;;;4.70;99.90;;;;;;5067699;28;20590;-50
2022/01/15 04:17:50;;;;;;;15.85;9.85;;;4.70;99.90;;;;;;5054401;28;20717;-50
2022/01/15 04:20:21;;;;;;;13.23;8.77;;;4.70;99.90;;;;;;5068315;28;20184;-50
2022/01/15 04:22:51;;;;;;;15.77;9.20;;;4.70;99.90;;;;;;5066515;28;20293;-51
2022/01/15 04:25:19;;;;;;;14.70;9.25;;;4.70;99.90;;;;;;5063088;28;20184;-49
2022/01/15 04:27:48;;;;;;;15.65;9.48;;;4.70;99.90;;;;;;5058267;28;20223;-49
2022/01/15 04:30:18;;;;;;;14.98;9.43;;;4.70;99.90;;;;;;5067739;28;20245;-50
2022/01/15 04:32:47;;;;;;;17.33;10.80;;;4.70;99.90;;;;;;5066128;28;20261;-49
2022/01/15 04:35:15;;;;;;;18.05;10.25;;;4.70;99.90;;;;;;5067307;28;20196;-50
2022/01/15 04:37:46;;;;;;;19.77;11.00;;;4.70;99.90;;;;;;5066499;28;20272;-50
2022/01/15 04:40:16;;;;;;;17.20;9.95;;;4.70;99.90;;;;;;5067169;28;20219;-49
2022/01/15 04:42:45;;;;;;;12.77;8.30;;;4.70;99.90;;;;;;5062908;28;20686;-50
2022/01/15 04:45:13;;;;;;;13.55;9.45;;;4.70;99.90;;;;;;5067819;28;20196;-51
2022/01/15 04:47:42;;;;;;;14.75;9.05;;;4.70;99.90;;;;;;5061291;28;20227;-50
2022/01/15 04:50:14;;;;;;;12.93;9.48;;;4.70;99.90;;;;;;5066894;28;20191;-50
2022/01/15 04:52:42;;;;;;;17.23;10.15;;;4.70;99.90;;;;;;5066872;28;20223;-49
2022/01/15 04:55:12;;;;;;;17.42;9.93;;;4.70;99.90;;;;;;5064923;28;20446;-49
2022/01/15 04:57:41;;;;;;;13.00;7.75;;;4.70;99.90;;;;;;5065700;28;20302;-49
2022/01/15 05:00:13;;;;;;;12.85;7.97;;;4.70;99.90;;;;;;5067158;28;20191;-50
2022/01/15 05:02:41;;;;;;;15.80;10.00;;;4.70;99.90;;;;;;5053600;28;21909;-49
2022/01/15 05:05:13;;;;;;;15.93;9.15;;;4.70;99.90;;;;;;5065201;28;20191;-50
2022/01/15 05:07:42;;;;;;;12.80;8.98;;;4.70;99.90;;;;;;5065892;28;20231;-50
2022/01/15 05:10:16;;;;;;;14.80;8.70;;;4.70;99.90;;;;;;5064370;28;20612;-51
2022/01/15 05:12:46;;;;;;;19.30;11.15;;;4.70;99.90;;;;;;5069287;28;20264;-50
2022/01/15 05:15:16;;;;;;;14.18;8.27;;;4.70;99.90;;;;;;5069187;28;20203;-50
2022/01/15 05:17:45;;;;;;;13.05;8.25;;;4.60;99.90;;;;;;5053249;28;20247;-50
2022/01/15 05:20:17;;;;;;;13.40;8.27;;;4.70;99.90;;;;;;5066565;28;20417;-50
2022/01/15 05:22:46;;;;;;;12.68;7.70;;;4.70;99.90;;;;;;5065568;28;20681;-50
2022/01/15 05:25:16;;;;;;;12.48;7.38;;;4.70;99.90;;;;;;5061659;28;20279;-51
2022/01/15 05:27:45;;;;;;;10.52;7.93;;;4.70;99.90;;;;;;5065146;28;20621;-51
2022/01/15 05:30:14;;;;;;;13.45;8.02;;;4.70;99.90;;;;;;5066703;28;20389;-51
2022/01/15 05:32:43;;;;;;;12.55;8.02;;;4.70;99.90;;;;;;5061379;28;20223;-50
2022/01/15 05:35:11;;;;;;;15.10;9.30;;;4.70;99.90;;;;;;5066511;28;20207;-50
2022/01/15 05:37:40;;;;;;;13.23;8.00;;;4.70;99.90;;;;;;5065856;28;20665;-50
2022/01/15 05:40:10;;;;;;;13.50;9.07;;;4.70;99.90;;;;;;5065875;28;20176;-50
2022/01/15 05:42:38;;;;;;;17.08;9.18;;;4.70;99.90;;;;;;5064652;28;20203;-50
2022/01/15 05:45:07;;;;;;;14.52;8.05;;;4.70;99.90;;;;;;5066061;28;20192;-50
2022/01/15 05:47:35;;;;;;;10.40;7.45;;;4.70;99.90;;;;;;5061227;28;20214;-50
2022/01/15 05:50:04;;;;;;;11.13;7.78;;;4.70;99.90;;;;;;5066545;28;20203;-49
2022/01/15 05:52:32;;;;;;;12.85;9.77;;;4.70;99.90;;;;;;5065126;28;20222;-49
2022/01/15 05:55:02;;;;;;;17.17;8.68;;;4.70;99.90;;;;;;5065177;28;20227;-51
2022/01/15 05:57:30;;;;;;;13.00;7.25;;;4.70;99.90;;;;;;5060659;28;20215;-50
2022/01/15 05:59:58;;;;;;;11.68;7.45;;;4.70;99.90;;;;;;5064872;28;20670;-50
2022/01/15 06:02:26;;;;;;;11.02;8.05;;;4.70;99.90;;;;;;5064382;28;20203;-50
2022/01/15 06:04:54;;;;;;;12.93;8.38;;;4.70;99.90;;;;;;5065871;28;20742;-50
2022/01/15 06:07:22;;;;;;;14.52;8.57;;;4.70;99.90;;;;;;5066115;28;20286;-49
2022/01/15 06:09:50;;;;;;;11.73;8.25;;;4.70;99.90;;;;;;5066176;28;20216;-50
2022/01/15 06:12:28;;;;;;;12.45;7.90;;;4.70;99.90;;;;;;5054342;28;20313;-50
2022/01/15 06:14:56;;;;;;;11.48;7.72;;;4.70;99.90;;;;;;5062343;28;20286;-50
2022/01/15 06:17:25;;;;;;;14.48;8.30;;;4.70;99.90;;;;;;5061136;28;20616;-49
2022/01/15 06:19:53;;;;;;;11.10;7.72;;;4.70;99.90;;;;;;5065165;28;20260;-50
2022/01/15 06:22:21;;;;;;;10.68;7.35;;;4.60;99.90;;;;;;5065845;28;20191;-51
2022/01/15 06:24:49;;;;;;;13.05;7.72;;;4.70;99.90;;;;;;5059237;28;20299;-49
2022/01/15 06:27:19;;;;;;;11.38;8.32;;;4.70;99.90;;;;;;5066314;28;20632;-49
2022/01/15 06:29:48;;;;;;;12.93;7.45;;;4.70;99.90;;;;;;5066047;28;20314;-49
2022/01/15 06:32:16;;;;;;;13.00;7.68;;;4.70;99.90;;;;;;5061605;28;20287;-49
2022/01/15 06:34:44;;;;;;;11.88;7.45;;;4.60;99.90;;;;;;5067066;28;20219;-50
2022/01/15 06:37:12;;;;;;;10.30;8.52;;;4.60;99.90;;;;;;5066629;28;20828;-51
2022/01/15 06:39:41;;;;;;;13.32;8.43;;;4.60;99.90;;;;;;5060812;28;20231;-49
2022/01/15 06:42:09;;;;;;;10.55;7.32;;;4.70;99.90;;;;;;5066166;28;20647;-50
2022/01/15 06:44:37;;;;;;;12.02;8.00;;;4.70;99.90;;;;;;5065540;28;20234;-49
2022/01/15 06:47:07;;;;;;;10.43;7.20;;;4.60;99.90;;;;;;5065330;28;20188;-50
2022/01/15 06:49:38;;;;;;;11.25;7.53;;;4.60;99.90;;;;;;5065005;28;20338;-51
2022/01/15 06:52:06;;;;;;;12.00;8.02;;;4.70;99.90;;;;;;5063110;28;20215;-51
2022/01/15 06:54:34;;;;;;;13.57;8.10;;;4.60;99.90;;;;;;5064972;28;20239;-50
2022/01/15 06:57:04;;;;;;;11.68;8.05;;;4.60;99.90;;;;;;5064985;28;20192;-51
2022/01/15 06:59:32;;;;;;;12.55;8.05;;;4.60;99.90;;;;;;5063684;28;20306;-49
2022/01/15 07:02:00;;;;;;;11.23;7.18;;;4.60;99.90;;;;;;5065085;28;20750;-50
2022/01/15 07:04:31;;;;;;;10.88;8.48;;;4.70;99.90;;;;;;5064300;28;20733;-50
2022/01/15 07:06:59;;;;;;;14.90;9.10;;;4.60;99.90;;;;;;5065625;28;20710;-51
2022/01/15 07:09:27;;;;;;;11.75;7.78;;;4.70;99.90;;;;;;5065774;28;20231;-50
2022/01/15 07:11:56;;;;;;;13.13;8.48;;;4.60;99.90;;;;;;5060843;28;20215;-50
2022/01/15 07:14:24;;;;;;;13.93;8.95;;;4.60;99.90;;;;;;5068707;28;20231;-50
2022/01/15 07:16:52;;;;;;;12.75;7.82;;;4.60;99.90;;;;;;5059715;28;20560;-50
2022/01/15 07:19:21;;;;;;;10.00;6.57;;;4.60;99.90;;;;;;5069340;28;20261;-50
2022/01/15 07:21:50;;;;;;;13.07;7.82;;;4.60;99.90;;;;;;5069277;28;20279;-50
2022/01/15 07:24:18;;;;;;;13.73;9.07;;;4.70;99.90;;;;;;5059245;28;20239;-49
2022/01/15 07:26:47;;;;;;;12.63;8.35;;;4.60;99.90;;;;;;5069174;28;20681;-50
2022/01/15 07:29:16;;;;;;;13.23;8.68;;;4.60;99.90;;;;;;5068770;28;20219;-50
2022/01/15 07:31:47;;;;;;;10.93;8.35;;;4.60;99.90;;;;;;5044298;28;20240;-50
2022/01/15 07:34:17;;;;;;;13.52;8.60;;;4.60;99.90;;;;;;5065064;28;20285;-50
2022/01/15 07:36:57;;;;;;;12.20;7.78;;;4.60;99.90;;;;;;5069506;28;20194;-50
2022/01/15 07:39:26;;;;;;;13.60;8.70;;;4.60;99.90;;;;;;5069468;28;20223;-50
2022/01/15 07:41:56;;;;;;;12.98;8.60;;;4.60;99.90;;;;;;5064454;28;20192;-50
2022/01/15 07:44:25;;;;;;;10.95;8.02;;;4.60;99.90;;;;;;5068396;28;20227;-50
2022/01/15 07:46:54;;;;;;;10.02;7.65;;;4.60;99.90;;;;;;5064252;28;20214;-50
2022/01/15 07:49:23;;;;;;;11.20;8.60;;;4.60;99.90;;;;;;5069233;28;20337;-50
2022/01/15 07:51:53;;;;;;;14.13;7.90;;;4.60;99.90;;;;;;5071166;28;20241;-49
2022/01/15 07:54:22;;;;;;;12.95;8.32;;;4.60;99.90;;;;;;5069972;28;20250;-49
2022/01/15 07:56:51;;;;;;;13.40;8.38;;;4.60;99.90;;;;;;5069250;28;20184;-50
2022/01/15 07:59:19;;;;;;;12.15;9.35;;;4.60;99.90;;;;;;5068711;28;20302;-50
2022/01/15 08:01:48;;;;;;;13.25;9.77;;;4.60;99.90;;;;;;5068756;28;20196;-50
2022/01/15 08:04:18;;;;;;;11.88;8.70;;;4.60;99.90;;;;;;5067899;28;20226;-49
2022/01/15 08:06:47;;;;;;;11.77;7.93;;;4.60;99.90;;;;;;5069616;28;20203;-49
2022/01/15 08:09:18;;;;;;;11.73;8.65;;;4.60;99.90;;;;;;5049710;28;20239;-51
2022/01/15 08:11:47;;;;;;;11.68;7.82;;;4.60;99.90;;;;;;5069727;28;20271;-50
2022/01/15 08:14:16;;;;;;;10.13;8.30;;;4.60;99.90;;;;;;5062516;28;20216;-49
2022/01/15 08:16:46;;;;;;;12.07;8.15;;;4.60;99.90;;;;;;5065114;28;20655;-49
2022/01/15 08:19:14;;;;;;;12.63;8.43;;;4.60;99.90;;;;;;5062703;28;20208;-50
2022/01/15 08:21:43;;;;;;;10.30;7.43;;;4.50;99.90;;;;;;5069313;28;20615;-50
2022/01/15 08:24:13;;;;;;;10.95;8.25;;;4.60;99.90;;;;;;5062210;28;20246;-50
2022/01/15 08:26:43;;;;;;;12.77;8.32;;;4.60;99.90;;;;;;5068910;28;20184;-50
2022/01/15 08:29:13;;;;;;;12.38;8.45;;;4.50;99.90;;;;;;5068409;28;20851;-50
2022/01/15 08:31:41;;;;;;;13.57;7.70;;;4.50;99.90;;;;;;5067835;28;20218;-50
2022/01/15 08:34:11;;;;;;;11.32;7.13;;;4.50;99.90;;;;;;5068208;28;20777;-49
2022/01/15 08:36:40;;;;;;;9.70;7.28;;;4.60;99.90;;;;;;5069191;28;20192;-49
2022/01/15 08:39:10;;;;;;;12.38;7.65;;;4.60;99.90;;;;;;5066283;28;20227;-50
2022/01/15 08:41:39;;;;;;;11.25;8.00;;;4.60;99.90;;;;;;5066956;28;20405;-49
2022/01/15 08:44:11;;;;;;;10.48;7.13;;;4.60;99.90;;;;;;5060581;28;20432;-50
2022/01/15 08:46:39;;;;;;;10.15;7.35;;;4.60;99.90;;;;;;5055743;28;20196;-51
2022/01/15 08:49:08;;;;;;;12.23;8.70;;;4.60;99.90;;;;;;5068088;28;20230;-50
2022/01/15 08:51:36;;;;;;;10.18;7.20;;;4.60;99.90;;;;;;5061553;28;20227;-50
2022/01/15 08:54:06;;;;;;;11.82;7.30;;;4.50;99.90;;;;;;5068067;28;20345;-50
2022/01/15 08:56:35;;;;;;;10.95;6.97;;;4.60;99.90;;;;;;5067346;28;20196;-50
2022/01/15 08:59:04;;;;;;;11.63;7.50;;;4.60;99.90;;;;;;5067763;28;20250;-51
2022/01/15 09:01:34;;;;;;;8.50;6.95;;;4.60;99.90;;;;;;5064310;28;20212;-48
2022/01/15 09:04:04;;;;;;;9.45;6.95;;;4.50;99.90;;;;;;5067685;28;20515;-49
2022/01/15 09:06:32;;;;;;;12.55;7.93;;;4.60;99.90;;;;;;5068384;28;20315;-49
2022/01/15 09:09:00;;;;;;;9.60;7.47;;;4.60;99.90;;;;;;5068766;28;20212;-50
2022/01/15 09:11:28;;;;;;;9.23;6.93;;;4.60;99.90;;;;;;5068432;28;20283;-50
2022/01/15 09:13:56;;;;;;;8.07;6.30;;;4.60;99.90;;;;;;5066671;28;20302;-49
2022/01/15 09:16:24;;;;;;;10.55;8.00;;;4.50;99.90;;;;;;5062974;28;20271;-49
2022/01/15 09:18:56;;;;;;;8.80;6.18;;;4.60;99.90;;;;;;5060501;28;20215;-50
2022/01/15 09:21:25;;;;;;;10.93;7.05;;;4.50;99.90;;;;;;5067255;28;20192;-50
2022/01/15 09:23:53;;;;;;;8.40;6.18;;;4.50;99.90;;;;;;5063832;28;20239;-51
2022/01/15 09:26:44;;;;;;;9.38;6.68;;;4.50;99.90;;;;;;5063765;28;20203;-49
2022/01/15 09:32:01;;;;;;;10.10;7.38;;;4.60;99.90;;;;;;5059848;28;20192;-51
2022/01/15 09:34:34;;;;;;;17.13;8.80;;;4.50;99.90;;;;;;5063020;28;20219;-50
2022/01/15 09:37:05;;;;;;;11.85;6.95;;;4.60;99.90;;;;;;5062930;28;20271;-49
2022/01/15 09:39:33;;;;;;;10.38;8.25;;;4.60;99.90;;;;;;5064316;28;20268;-49
2022/01/15 09:42:02;;;;;;;15.05;9.18;;;4.60;99.90;;;;;;5063916;28;20199;-49
2022/01/15 09:44:33;;;;;;;18.30;8.70;;;4.60;99.90;;;;;;5067185;28;20376;-49
2022/01/15 09:47:03;;;;;;;11.68;9.38;;;4.60;99.90;;;;;;5058384;28;20560;-49
2022/01/15 09:49:35;;;;;;;11.13;8.90;;;4.60;99.90;;;;;;5064147;28;20226;-49
2022/01/15 09:52:04;;;;;;;11.35;8.85;;;4.50;99.90;;;;;;5068047;28;20206;-49
2022/01/15 09:54:33;;;;;;;15.27;8.80;;;4.50;99.90;;;;;;5065998;28;20281;-49
2022/01/15 09:57:01;;;;;;;10.82;7.63;;;4.50;99.90;;;;;;5063514;28;20195;-49
2022/01/15 09:59:31;;;;;;;12.02;8.40;;;4.50;99.90;;;;;;5067722;28;20642;-50
2022/01/15 10:02:03;;;;;;;14.00;8.65;;;4.50;99.90;;;;;;5066390;28;20184;-50
2022/01/15 10:04:32;;;;;;;9.95;7.60;;;4.50;99.90;;;;;;5068464;28;20216;-50
2022/01/15 10:07:10;;;;;;;11.88;8.13;;;4.50;99.90;;;;;;5071444;28;20219;-50
2022/01/15 10:09:41;;;;;;;10.70;8.30;;;4.50;99.90;;;;;;5070634;28;20215;-50
2022/01/15 10:12:11;;;;;;;10.95;8.27;;;4.50;99.90;;;;;;5048361;28;20199;-50
2022/01/15 10:14:43;;;;;;;10.75;7.53;;;4.50;99.90;;;;;;5056892;28;20355;-50
2022/01/15 10:17:24;;;;;;;11.73;8.43;;;4.50;99.90;;;;;;5065802;28;20875;-50
2022/01/15 10:19:54;;;;;;;9.13;7.85;;;4.50;99.90;;;;;;5063490;28;20222;-50
2022/01/15 10:22:26;;;;;;;13.70;8.23;;;4.50;99.90;;;;;;5066004;28;20620;-50
2022/01/15 10:24:56;;;;;;;8.40;6.75;;;4.50;99.90;;;;;;5063149;28;20631;-49
2022/01/15 10:27:30;;;;;;;9.35;7.70;;;4.50;99.90;;;;;;5064088;28;20230;-48
2022/01/15 10:30:01;;;;;;;12.23;7.43;;;4.50;99.90;;;;;;5068114;23;20286;-69
2022/01/15 10:32:32;;;;;;;8.55;6.50;;;4.50;99.90;;;;;;5047591;28;20778;-69
2022/01/15 10:35:09;;;;;;;13.32;7.43;;;4.50;99.90;;;;;;5046958;28;20181;-69
2022/01/15 10:37:48;;;;;;;9.82;6.70;;;4.50;99.90;;;;;;5047732;28;20246;-69
2022/01/15 10:40:17;;;;;;;9.82;7.55;;;4.50;99.90;;;;;;5046699;28;20641;-69
2022/01/15 10:42:53;;;;;;;10.10;6.63;;;4.50;99.90;;;;;;5044249;28;20302;-69
2022/01/15 10:45:22;;;;;;;10.32;8.25;;;4.50;99.90;;;;;;5046352;28;20638;-69
2022/01/15 10:47:54;;;;;;;13.95;8.90;;;4.60;99.90;;;;;;5048597;28;20303;-69
2022/01/15 10:50:24;;;;;;;10.88;7.60;;;4.60;99.90;;;;;;5051761;28;20305;-69
2022/01/15 10:52:55;;;;;;;11.38;8.65;;;4.60;99.90;;;;;;5051542;28;20712;-69
2022/01/15 10:55:30;;;;;;;14.05;8.43;;;4.60;99.90;;;;;;5051597;28;20274;-69
2022/01/15 10:58:00;;;;;;;13.18;8.77;;;4.50;99.90;;;;;;5029369;28;20265;-69
2022/01/15 11:00:30;;;;;;;10.77;8.30;;;4.50;99.90;;;;;;5051507;28;20208;-69
2022/01/15 11:03:00;;;;;;;11.20;7.45;;;4.50;99.90;;;;;;5042774;28;20248;-69
2022/01/15 11:05:34;;;;;;;12.82;8.05;;;4.50;99.90;;;;;;5043686;28;20223;-68
2022/01/15 11:08:22;;;;;;;10.98;7.50;;;4.50;99.90;;;;;;5050134;28;20282;-69
2022/01/15 11:10:53;;;;;;;16.13;8.48;;;4.50;99.90;;;;;;5027335;28;20243;-69
2022/01/15 11:13:24;;;;;;;12.10;8.25;;;4.50;99.90;;;;;;5048212;28;20220;-69
2022/01/15 11:15:56;;;;;;;12.68;7.70;;;4.50;99.90;;;;;;5050902;28;20227;-69
2022/01/15 11:18:27;;;;;;;12.82;8.02;;;4.50;99.90;;;;;;5037324;28;20220;-69
2022/01/15 11:20:57;;;;;;;14.63;9.43;;;4.50;99.90;;;;;;5044002;28;20673;-69
2022/01/15 11:23:28;;;;;;;13.70;9.68;;;4.50;99.90;;;;;;5051130;28;20274;-69
2022/01/15 11:25:58;;;;;;;12.30;9.15;;;4.50;99.90;;;;;;5039823;28;20189;-71
2022/01/15 11:28:29;;;;;;;11.98;8.73;;;4.50;99.90;;;;;;5045965;28;20270;-69
2022/01/15 11:31:00;;;;;;;12.20;7.72;;;4.50;99.90;;;;;;5049333;28;20204;-69
2022/01/15 11:33:31;;;;;;;11.07;8.10;;;4.50;99.90;;;;;;5038013;28;20232;-69
2022/01/15 11:35:59;;;;;;;11.98;9.05;;;4.50;99.90;;;;;;5051101;28;20216;-69
2022/01/15 11:38:43;;;;;;;11.30;7.68;;;4.50;99.90;;;;;;5049533;28;20250;-69
2022/01/15 11:41:38;;;;;;;10.75;7.63;;;4.50;99.90;;;;;;5051193;28;20278;-69
2022/01/15 11:44:08;;;;;;;8.98;7.25;;;4.50;99.90;;;;;;5049415;28;20209;-69
2022/01/15 11:46:47;;;;;;;10.35;8.07;;;4.50;99.90;;;;;;5046172;28;20236;-69
2022/01/15 11:49:38;;;;;;;12.02;7.65;;;4.50;99.90;;;;;;5029133;28;20223;-69
2022/01/15 11:52:32;;;;;;;11.07;7.85;;;4.50;99.90;;;;;;5051676;28;20218;-69
2022/01/15 11:55:28;;;;;;;9.50;7.38;;;4.50;99.90;;;;;;5045780;28;20734;-69
2022/01/15 11:57:59;;;;;;;11.43;8.07;;;4.50;99.90;;;;;;5043214;28;20232;-69
2022/01/15 12:00:34;;;;;;;10.68;7.82;;;4.50;99.90;;;;;;5048112;28;20586;-69
2022/01/15 12:03:06;;;;;;;10.93;7.28;;;4.50;99.90;;;;;;5044649;28;20229;-69
2022/01/15 12:05:40;;;;;;;10.30;7.35;;;4.50;99.90;;;;;;5050530;28;20192;-69
2022/01/15 12:08:30;;;;;;;9.65;6.68;;;4.50;99.90;;;;;;5048034;28;20224;-69
2022/01/15 12:11:02;;;;;;;9.98;7.82;;;4.50;99.90;;;;;;5050454;28;20201;-69
2022/01/15 12:13:42;;;;;;;11.15;6.95;;;4.50;99.90;;;;;;5049757;28;20267;-69
2022/01/15 12:16:36;;;;;;;9.48;6.75;;;4.50;99.90;;;;;;5034605;28;20208;-69
2022/01/15 12:19:06;;;;;;;9.82;7.47;;;4.50;99.90;;;;;;5047657;28;20235;-69
2022/01/15 12:21:46;;;;;;;7.45;6.28;;;4.50;99.90;;;;;;5031316;28;20247;-69
2022/01/15 12:24:38;;;;;;;9.23;6.50;;;4.50;99.90;;;;;;5047976;28;20228;-69
2022/01/15 12:27:11;;;;;;;8.55;6.13;;;4.60;99.90;;;;;;5048400;28;20251;-69
2022/01/15 12:29:40;;;;;;;8.23;6.93;;;4.60;99.90;;;;;;5050068;28;20824;-69
2022/01/15 12:32:09;;;;;;;9.68;6.97;;;4.60;99.90;;;;;;5044712;28;20630;-69
2022/01/15 12:34:38;;;;;;;8.90;6.20;;;4.50;99.90;;;;;;5049104;28;20663;-69
2022/01/15 12:37:13;;;;;;;9.55;6.65;;;4.50;99.90;;;;;;5050289;28;20208;-69
2022/01/15 12:39:41;;;;;;;9.45;6.53;;;4.50;99.90;;;;;;5049569;28;20766;-69
2022/01/15 12:42:12;;;;;;;8.73;6.10;;;4.60;99.90;;;;;;5047128;28;20644;-69
2022/01/15 12:44:42;;;;;;;9.10;6.53;;;4.50;99.90;;;;;;5031100;28;20681;-69
2022/01/15 12:47:10;;;;;;;8.00;6.28;;;4.60;99.90;;;;;;5049941;28;20714;-69
2022/01/15 12:49:41;;;;;;;7.05;5.55;;;4.50;99.90;;;;;;5031560;28;20220;-69
2022/01/15 12:52:14;;;;;;;10.60;6.88;;;4.60;99.90;;;;;;5050093;28;20238;-69
2022/01/15 12:54:43;;;;;;;8.73;6.68;;;4.60;99.90;;;;;;5048526;28;20926;-69
2022/01/15 12:57:12;;;;;;;7.45;5.97;;;4.60;99.90;;;;;;5049836;28;20644;-69
2022/01/15 12:59:40;;;;;;;9.65;6.18;;;4.60;99.90;;;;;;5046557;28;20285;-69
2022/01/15 13:02:09;;;;;;;8.40;6.47;;;4.60;99.90;;;;;;5045127;28;20236;-69
2022/01/15 13:04:37;;;;;;;7.82;6.32;;;4.60;99.90;;;;;;5045555;28;20220;-69
2022/01/15 13:07:06;;;;;;;8.90;6.30;;;4.60;99.90;;;;;;5047863;28;20362;-69
2022/01/15 13:09:45;;;;;;;8.65;5.88;;;4.60;99.90;;;;;;5029655;28;20803;-69
2022/01/15 13:12:14;;;;;;;8.50;6.10;;;4.60;99.90;;;;;;5042907;28;20275;-69
2022/01/15 13:14:44;;;;;;;9.80;6.30;;;4.60;99.90;;;;;;5046766;28;20239;-69
2022/01/15 13:17:26;;;;;;;8.23;5.93;;;4.50;99.90;;;;;;5030695;28;20274;-69
2022/01/15 13:19:54;;;;;;;8.02;5.95;;;4.60;99.90;;;;;;5049089;28;20254;-69
2022/01/15 13:22:23;;;;;;;7.85;5.88;;;4.60;99.90;;;;;;5050130;28;20208;-69